Aviation Digital Data Service (ADDS)

Output produced by METARs form (1817 UTC 25 January 2015)
found at http://www.aviationweather.gov/adds/metars/
 
KSAV 251753Z 24005KT 10SM FEW200 15/M01 A2997 RMK AO2 SLP147 T01501006 10150 20017 58023